sensor_id;sensor_type;location;lat;lon;timestamp;P1;durP1;ratioP1;P2;durP2;ratioP2
8885;SDS011;4479;51.162;13.906;2023-07-13T00:05:15;1.30;;;1.20;;
8885;SDS011;4479;51.162;13.906;2023-07-13T00:15:19;1.27;;;1.13;;
8885;SDS011;4479;51.162;13.906;2023-07-13T00:25:24;1.30;;;1.20;;
8885;SDS011;4479;51.162;13.906;2023-07-13T00:35:29;1.60;;;1.50;;
8885;SDS011;4479;51.162;13.906;2023-07-13T00:56:12;1.20;;;1.10;;
8885;SDS011;4479;51.162;13.906;2023-07-13T01:06:16;1.20;;;1.10;;
8885;SDS011;4479;51.162;13.906;2023-07-13T01:16:21;1.20;;;1.10;;
8885;SDS011;4479;51.162;13.906;2023-07-13T01:26:27;1.47;;;1.37;;
8885;SDS011;4479;51.162;13.906;2023-07-13T01:36:29;2.03;;;1.40;;
8885;SDS011;4479;51.162;13.906;2023-07-13T01:46:34;1.50;;;1.40;;
8885;SDS011;4479;51.162;13.906;2023-07-13T01:56:36;1.90;;;1.80;;
8885;SDS011;4479;51.162;13.906;2023-07-13T02:06:41;1.30;;;1.20;;
8885;SDS011;4479;51.162;13.906;2023-07-13T02:16:44;1.53;;;1.10;;
8885;SDS011;4479;51.162;13.906;2023-07-13T02:26:48;1.43;;;1.33;;
8885;SDS011;4479;51.162;13.906;2023-07-13T02:36:50;1.50;;;1.40;;
8885;SDS011;4479;51.162;13.906;2023-07-13T02:46:54;3.00;;;1.43;;
8885;SDS011;4479;51.162;13.906;2023-07-13T02:56:56;1.80;;;1.27;;
8885;SDS011;4479;51.162;13.906;2023-07-13T03:07:00;1.50;;;1.40;;
8885;SDS011;4479;51.162;13.906;2023-07-13T03:17:09;1.63;;;1.53;;
8885;SDS011;4479;51.162;13.906;2023-07-13T03:27:16;1.70;;;1.50;;
8885;SDS011;4479;51.162;13.906;2023-07-13T03:37:22;1.40;;;1.30;;
8885;SDS011;4479;51.162;13.906;2023-07-13T03:47:26;2.57;;;1.63;;
8885;SDS011;4479;51.162;13.906;2023-07-13T03:57:29;3.37;;;1.63;;
8885;SDS011;4479;51.162;13.906;2023-07-13T04:07:38;1.47;;;1.37;;
8885;SDS011;4479;51.162;13.906;2023-07-13T04:17:41;1.77;;;1.67;;
8885;SDS011;4479;51.162;13.906;2023-07-13T04:27:44;1.50;;;1.40;;
8885;SDS011;4479;51.162;13.906;2023-07-13T04:37:47;2.20;;;1.50;;
8885;SDS011;4479;51.162;13.906;2023-07-13T04:47:52;1.60;;;1.50;;
8885;SDS011;4479;51.162;13.906;2023-07-13T04:57:54;1.90;;;1.47;;
8885;SDS011;4479;51.162;13.906;2023-07-13T05:08:00;1.57;;;1.40;;
8885;SDS011;4479;51.162;13.906;2023-07-13T05:18:02;5.07;;;1.90;;
8885;SDS011;4479;51.162;13.906;2023-07-13T05:28:06;1.63;;;1.50;;
8885;SDS011;4479;51.162;13.906;2023-07-13T05:38:08;1.67;;;1.57;;
8885;SDS011;4479;51.162;13.906;2023-07-13T05:48:12;1.80;;;1.23;;
8885;SDS011;4479;51.162;13.906;2023-07-13T05:58:15;1.47;;;1.37;;
8885;SDS011;4479;51.162;13.906;2023-07-13T06:08:19;3.40;;;1.80;;
8885;SDS011;4479;51.162;13.906;2023-07-13T06:18:21;1.70;;;1.60;;
8885;SDS011;4479;51.162;13.906;2023-07-13T06:28:25;1.70;;;1.60;;
8885;SDS011;4479;51.162;13.906;2023-07-13T06:38:28;4.80;;;1.87;;
8885;SDS011;4479;51.162;13.906;2023-07-13T06:48:31;2.33;;;1.57;;
8885;SDS011;4479;51.162;13.906;2023-07-13T06:58:34;2.23;;;1.77;;
8885;SDS011;4479;51.162;13.906;2023-07-13T07:08:37;2.00;;;1.90;;
8885;SDS011;4479;51.162;13.906;2023-07-13T07:18:40;2.50;;;1.80;;
8885;SDS011;4479;51.162;13.906;2023-07-13T07:28:43;3.50;;;1.90;;
8885;SDS011;4479;51.162;13.906;2023-07-13T07:38:46;2.80;;;1.60;;
8885;SDS011;4479;51.162;13.906;2023-07-13T07:48:49;2.30;;;1.57;;
8885;SDS011;4479;51.162;13.906;2023-07-13T07:58:52;2.13;;;1.50;;
8885;SDS011;4479;51.162;13.906;2023-07-13T08:08:55;1.73;;;1.50;;
8885;SDS011;4479;51.162;13.906;2023-07-13T08:18:58;1.63;;;1.53;;
8885;SDS011;4479;51.162;13.906;2023-07-13T08:29:02;2.50;;;2.00;;
8885;SDS011;4479;51.162;13.906;2023-07-13T08:39:04;2.83;;;1.80;;
8885;SDS011;4479;51.162;13.906;2023-07-13T08:49:10;2.17;;;1.97;;
8885;SDS011;4479;51.162;13.906;2023-07-13T08:59:15;1.60;;;1.33;;
8885;SDS011;4479;51.162;13.906;2023-07-13T09:09:23;2.77;;;1.50;;
8885;SDS011;4479;51.162;13.906;2023-07-13T09:19:33;2.20;;;1.30;;
8885;SDS011;4479;51.162;13.906;2023-07-13T09:29:38;1.37;;;1.20;;
8885;SDS011;4479;51.162;13.906;2023-07-13T09:39:48;1.20;;;1.07;;
8885;SDS011;4479;51.162;13.906;2023-07-13T09:49:55;2.60;;;1.43;;
8885;SDS011;4479;51.162;13.906;2023-07-13T09:59:59;1.50;;;1.37;;
8885;SDS011;4479;51.162;13.906;2023-07-13T10:10:03;1.67;;;1.40;;
8885;SDS011;4479;51.162;13.906;2023-07-13T10:20:15;1.73;;;1.17;;
8885;SDS011;4479;51.162;13.906;2023-07-13T10:30:20;1.40;;;1.30;;
8885;SDS011;4479;51.162;13.906;2023-07-13T10:40:27;1.70;;;1.00;;
8885;SDS011;4479;51.162;13.906;2023-07-13T10:50:36;1.50;;;0.90;;
8885;SDS011;4479;51.162;13.906;2023-07-13T11:00:53;2.00;;;1.00;;
8885;SDS011;4479;51.162;13.906;2023-07-13T11:11:00;1.77;;;1.10;;
8885;SDS011;4479;51.162;13.906;2023-07-13T11:21:12;1.00;;;0.90;;
8885;SDS011;4479;51.162;13.906;2023-07-13T11:31:18;1.57;;;1.20;;
8885;SDS011;4479;51.162;13.906;2023-07-13T11:41:25;1.70;;;1.60;;
8885;SDS011;4479;51.162;13.906;2023-07-13T11:51:33;1.93;;;1.70;;
8885;SDS011;4479;51.162;13.906;2023-07-13T12:01:38;2.53;;;1.60;;
8885;SDS011;4479;51.162;13.906;2023-07-13T12:11:47;1.93;;;1.37;;
8885;SDS011;4479;51.162;13.906;2023-07-13T12:21:49;4.20;;;1.20;;
8885;SDS011;4479;51.162;13.906;2023-07-13T12:31:55;2.20;;;1.20;;
8885;SDS011;4479;51.162;13.906;2023-07-13T12:42:09;3.43;;;1.07;;
8885;SDS011;4479;51.162;13.906;2023-07-13T12:52:29;1.23;;;1.10;;
8885;SDS011;4479;51.162;13.906;2023-07-13T13:02:33;2.30;;;1.27;;
8885;SDS011;4479;51.162;13.906;2023-07-13T13:12:38;2.40;;;1.07;;
8885;SDS011;4479;51.162;13.906;2023-07-13T13:22:42;1.03;;;0.93;;
8885;SDS011;4479;51.162;13.906;2023-07-13T13:32:46;1.00;;;1.00;;
8885;SDS011;4479;51.162;13.906;2023-07-13T13:42:49;2.23;;;1.10;;
8885;SDS011;4479;51.162;13.906;2023-07-13T13:52:55;1.83;;;1.00;;
8885;SDS011;4479;51.162;13.906;2023-07-13T14:02:57;1.03;;;0.97;;
8885;SDS011;4479;51.162;13.906;2023-07-13T14:13:01;1.17;;;1.07;;
8885;SDS011;4479;51.162;13.906;2023-07-13T14:23:05;1.13;;;1.03;;
8885;SDS011;4479;51.162;13.906;2023-07-13T14:33:10;2.30;;;0.93;;
8885;SDS011;4479;51.162;13.906;2023-07-13T14:43:13;1.50;;;1.20;;
8885;SDS011;4479;51.162;13.906;2023-07-13T14:53:18;1.17;;;1.07;;
8885;SDS011;4479;51.162;13.906;2023-07-13T15:03:23;1.80;;;0.90;;
8885;SDS011;4479;51.162;13.906;2023-07-13T15:13:35;2.43;;;1.07;;
8885;SDS011;4479;51.162;13.906;2023-07-13T15:23:37;1.80;;;1.10;;
8885;SDS011;4479;51.162;13.906;2023-07-13T15:33:45;2.10;;;1.00;;
8885;SDS011;4479;51.162;13.906;2023-07-13T15:43:53;1.00;;;0.90;;
8885;SDS011;4479;51.162;13.906;2023-07-13T15:53:59;1.47;;;1.10;;
8885;SDS011;4479;51.162;13.906;2023-07-13T16:04:06;2.87;;;0.83;;
8885;SDS011;4479;51.162;13.906;2023-07-13T16:14:10;1.60;;;0.77;;
8885;SDS011;4479;51.162;13.906;2023-07-13T16:24:16;1.30;;;0.70;;
8885;SDS011;4479;51.162;13.906;2023-07-13T16:34:23;0.90;;;0.70;;
8885;SDS011;4479;51.162;13.906;2023-07-13T16:44:48;3.57;;;1.10;;
8885;SDS011;4479;51.162;13.906;2023-07-13T16:54:53;1.20;;;1.10;;
8885;SDS011;4479;51.162;13.906;2023-07-13T17:04:57;2.17;;;1.17;;
8885;SDS011;4479;51.162;13.906;2023-07-13T17:15:07;1.37;;;1.20;;
8885;SDS011;4479;51.162;13.906;2023-07-13T17:25:13;1.67;;;1.40;;
8885;SDS011;4479;51.162;13.906;2023-07-13T17:35:26;1.03;;;0.93;;
8885;SDS011;4479;51.162;13.906;2023-07-13T17:45:54;1.13;;;0.90;;
8885;SDS011;4479;51.162;13.906;2023-07-13T17:56:18;4.83;;;0.93;;
8885;SDS011;4479;51.162;13.906;2023-07-13T18:06:27;1.23;;;0.80;;
8885;SDS011;4479;51.162;13.906;2023-07-13T18:16:42;1.20;;;0.80;;
8885;SDS011;4479;51.162;13.906;2023-07-13T18:26:51;1.57;;;0.80;;
8885;SDS011;4479;51.162;13.906;2023-07-13T18:36:57;1.13;;;0.70;;
8885;SDS011;4479;51.162;13.906;2023-07-13T18:46:59;0.60;;;0.60;;
8885;SDS011;4479;51.162;13.906;2023-07-13T18:57:03;1.90;;;0.90;;
8885;SDS011;4479;51.162;13.906;2023-07-13T19:07:07;0.90;;;0.70;;
8885;SDS011;4479;51.162;13.906;2023-07-13T19:17:11;0.80;;;0.60;;
8885;SDS011;4479;51.162;13.906;2023-07-13T19:27:13;1.40;;;0.80;;
8885;SDS011;4479;51.162;13.906;2023-07-13T19:37:19;1.07;;;0.80;;
8885;SDS011;4479;51.162;13.906;2023-07-13T19:47:23;1.43;;;0.90;;
8885;SDS011;4479;51.162;13.906;2023-07-13T19:57:27;1.30;;;0.87;;
8885;SDS011;4479;51.162;13.906;2023-07-13T20:07:30;2.00;;;0.70;;
8885;SDS011;4479;51.162;13.906;2023-07-13T20:17:34;1.70;;;0.80;;
8885;SDS011;4479;51.162;13.906;2023-07-13T20:27:37;3.93;;;1.10;;
8885;SDS011;4479;51.162;13.906;2023-07-13T20:37:41;0.80;;;0.80;;
8885;SDS011;4479;51.162;13.906;2023-07-13T20:47:45;1.53;;;0.80;;
8885;SDS011;4479;51.162;13.906;2023-07-13T20:57:50;0.80;;;0.70;;
8885;SDS011;4479;51.162;13.906;2023-07-13T21:07:53;1.20;;;0.90;;
8885;SDS011;4479;51.162;13.906;2023-07-13T21:17:57;2.50;;;0.90;;
8885;SDS011;4479;51.162;13.906;2023-07-13T21:28:01;1.57;;;0.90;;
8885;SDS011;4479;51.162;13.906;2023-07-13T21:38:08;1.57;;;1.30;;
8885;SDS011;4479;51.162;13.906;2023-07-13T21:48:19;1.13;;;1.03;;
8885;SDS011;4479;51.162;13.906;2023-07-13T21:58:25;2.17;;;1.00;;
8885;SDS011;4479;51.162;13.906;2023-07-13T22:08:29;2.43;;;0.90;;
8885;SDS011;4479;51.162;13.906;2023-07-13T22:18:36;1.87;;;1.07;;
8885;SDS011;4479;51.162;13.906;2023-07-13T22:28:38;1.10;;;0.83;;
8885;SDS011;4479;51.162;13.906;2023-07-13T22:38:41;1.67;;;1.10;;
8885;SDS011;4479;51.162;13.906;2023-07-13T22:48:49;1.60;;;0.90;;
8885;SDS011;4479;51.162;13.906;2023-07-13T22:58:58;0.80;;;0.80;;
8885;SDS011;4479;51.162;13.906;2023-07-13T23:09:01;0.83;;;0.83;;
8885;SDS011;4479;51.162;13.906;2023-07-13T23:19:08;1.30;;;1.20;;
8885;SDS011;4479;51.162;13.906;2023-07-13T23:29:18;1.07;;;0.90;;
8885;SDS011;4479;51.162;13.906;2023-07-13T23:39:23;1.20;;;1.07;;
8885;SDS011;4479;51.162;13.906;2023-07-13T23:49:27;1.40;;;1.07;;
8885;SDS011;4479;51.162;13.906;2023-07-13T23:59:33;1.07;;;0.97;;
